Time;durP1;ratioP1;P1;durP2;ratioP2;P2;SDS_P1;SDS_P2;PMS_P1;PMS_P2;Temp;Humidity;BMP_temperature;BMP_pressure;BME280_temperature;BME280_humidity;BME280_pressure;Samples;Min_cycle;Max_cycle;Signal;HPM_P1;HPM_P2
2022/09/26 00:00:06;;;;;;;0.10;0.10;;;;;;;18.27;100.00;98740.91;7388993;19;20034;-58
2022/09/26 00:02:38;;;;;;;1.75;0.38;;;;;;;18.06;100.00;98736.09;7389828;19;20372;-61
2022/09/26 00:05:04;;;;;;;0.10;0.10;;;;;;;18.08;100.00;98727.09;7391649;19;20011;-61
2022/09/26 00:07:31;;;;;;;0.63;0.20;;;;;;;18.10;100.00;98722.41;7389102;19;20020;-62
2022/09/26 00:09:57;;;;;;;0.63;0.20;;;;;;;18.14;100.00;98703.09;7394773;19;20010;-64
2022/09/26 00:12:23;;;;;;;0.10;0.10;;;;;;;18.26;100.00;98697.13;7396342;19;20018;-63
2022/09/26 00:14:49;;;;;;;0.10;0.10;;;;;;;18.14;100.00;98691.81;7397732;19;20080;-63
2022/09/26 00:17:15;;;;;;;0.57;0.40;;;;;;;18.07;100.00;98692.53;7396508;19;20017;-63
2022/09/26 00:19:41;;;;;;;0.17;0.17;;;;;;;18.00;100.00;98686.84;7397416;19;20087;-63
2022/09/26 00:22:07;;;;;;;0.20;0.20;;;;;;;17.90;100.00;98692.25;7396660;19;20015;-63
2022/09/26 00:24:34;;;;;;;0.43;0.40;;;;;;;17.97;100.00;98687.97;7397634;19;20097;-64
2022/09/26 00:27:00;;;;;;;0.30;0.20;;;;;;;17.89;100.00;98682.28;7395305;19;20016;-64
2022/09/26 00:29:26;;;;;;;2.70;0.68;;;;;;;18.18;100.00;98683.75;7395663;19;20038;-64
2022/09/26 00:31:52;;;;;;;0.10;0.10;;;;;;;18.44;100.00;98679.16;7396535;19;20010;-65
2022/09/26 00:34:19;;;;;;;0.40;0.40;;;;;;;18.45;100.00;98675.06;7394506;19;20413;-65
2022/09/26 00:36:47;;;;;;;0.35;0.20;;;;;;;18.58;100.00;98674.94;7396411;19;20006;-64
2022/09/26 00:39:14;;;;;;;0.20;0.20;;;;;;;18.70;100.00;98674.03;7395991;19;20025;-64
2022/09/26 00:41:41;;;;;;;0.30;0.30;;;;;;;18.59;100.00;98680.00;7396048;19;20015;-64
2022/09/26 00:44:46;;;;;;;0.20;0.20;;;;;;;18.47;100.00;98673.22;7396225;19;20079;-64
2022/09/26 00:47:49;;;;;;;0.20;0.10;;;;;;;18.40;100.00;98662.63;7393167;19;20014;-64
2022/09/26 00:50:19;;;;;;;0.20;0.17;;;;;;;18.16;100.00;98649.75;7394095;19;20018;-66
2022/09/26 00:52:58;;;;;;;0.30;0.30;;;;;;;18.03;100.00;98640.66;7393942;19;20010;-65
2022/09/26 00:55:30;;;;;;;1.08;0.35;;;;;;;18.27;100.00;98619.72;7396454;19;20351;-65
2022/09/26 00:58:03;;;;;;;0.10;0.10;;;;;;;18.72;100.00;98625.50;7393924;19;20022;-65
2022/09/26 01:00:29;;;;;;;1.45;0.30;;;;;;;18.79;100.00;98619.13;7396569;19;20011;-65
2022/09/26 01:02:56;;;;;;;0.15;0.15;;;;;;;18.62;100.00;98602.00;7396581;19;20077;-64
2022/09/26 01:05:23;;;;;;;0.10;0.10;;;;;;;18.53;100.00;98594.06;7398696;19;20007;-65
2022/09/26 01:07:52;;;;;;;0.30;0.30;;;;;;;18.65;100.00;98587.50;7399150;19;20355;-65
2022/09/26 01:10:18;;;;;;;0.40;0.40;;;;;;;18.43;100.00;98581.81;7399439;19;20655;-65
2022/09/26 01:12:46;;;;;;;0.25;0.10;;;;;;;18.50;100.00;98578.28;7397211;19;20003;-64
2022/09/26 01:15:13;;;;;;;0.30;0.30;;;;;;;18.38;100.00;98560.19;7399282;19;20018;-64
2022/09/26 01:17:42;;;;;;;0.65;0.20;;;;;;;18.31;100.00;98555.28;7397479;19;20014;-64
2022/09/26 01:20:08;;;;;;;0.17;0.17;;;;;;;18.32;100.00;98546.25;7397442;19;20021;-64
2022/09/26 01:23:01;;;;;;;1.85;0.20;;;;;;;18.14;100.00;98545.28;7397712;19;20010;-64
2022/09/26 01:25:36;;;;;;;0.40;0.10;;;;;;;17.98;100.00;98538.09;7399020;19;20040;-66
2022/09/26 01:28:11;;;;;;;0.10;0.10;;;;;;;18.34;100.00;98540.06;7396819;19;20014;-65
2022/09/26 01:30:51;;;;;;;0.30;0.30;;;;;;;18.02;100.00;98521.56;7396302;19;20018;-65
2022/09/26 01:33:26;;;;;;;0.10;0.05;;;;;;;18.11;100.00;98514.66;7396676;19;20352;-65
2022/09/26 01:36:12;;;;;;;0.20;0.10;;;;;;;18.19;100.00;98493.63;7397459;19;20026;-65
2022/09/26 01:38:51;;;;;;;0.35;0.20;;;;;;;18.14;100.00;98488.94;7392423;19;20598;-65
2022/09/26 01:41:58;;;;;;;0.10;0.10;;;;;;;18.15;100.00;98481.22;7392633;19;20027;-64
2022/09/26 01:44:41;;;;;;;1.05;0.10;;;;;;;18.05;100.00;98472.56;7390003;19;20011;-64
2022/09/26 01:47:13;;;;;;;0.10;0.10;;;;;;;18.16;100.00;98475.03;7390051;19;20070;-65
2022/09/26 01:49:50;;;;;;;0.40;0.30;;;;;;;18.33;100.00;98477.31;7393785;19;20014;-64
2022/09/26 01:52:50;;;;;;;0.10;0.10;;;;;;;18.25;100.00;98479.38;7394844;19;20030;-65
2022/09/26 01:55:24;;;;;;;0.10;0.10;;;;;;;18.35;100.00;98463.41;7395848;19;20074;-65
2022/09/26 01:57:54;;;;;;;0.10;0.10;;;;;;;18.42;100.00;98444.97;7391879;19;20015;-64
2022/09/26 02:00:20;;;;;;;0.20;0.10;;;;;;;18.48;100.00;98437.88;7389986;19;20508;-64
2022/09/26 02:02:49;;;;;;;0.30;0.30;;;;;;;18.47;100.00;98430.75;7393602;19;20011;-63
2022/09/26 02:05:24;;;;;;;0.10;0.10;;;;;;;18.66;100.00;98424.69;7395343;19;20002;-64
2022/09/26 02:08:05;;;;;;;0.10;0.10;;;;;;;18.58;100.00;98454.97;7394525;19;20006;-63
2022/09/26 02:11:05;;;;;;;0.10;0.00;;;;;;;18.76;100.00;98434.09;7393174;19;20060;-63
2022/09/26 02:13:58;;;;;;;0.20;0.20;;;;;;;19.01;100.00;98440.63;7391048;19;20022;-63
2022/09/26 02:16:33;;;;;;;0.25;0.25;;;;;;;19.14;100.00;98429.13;7394280;19;20010;-63
2022/09/26 02:19:06;;;;;;;0.10;0.05;;;;;;;19.16;100.00;98417.25;7394428;19;20014;-63
2022/09/26 02:21:33;;;;;;;0.10;0.10;;;;;;;18.88;100.00;98418.28;7396934;19;20467;-62
2022/09/26 02:24:00;;;;;;;0.40;0.15;;;;;;;18.89;100.00;98414.13;7394378;19;20030;-62
2022/09/26 02:26:28;;;;;;;0.30;0.25;;;;;;;19.03;100.00;98409.78;7393570;19;20024;-62
2022/09/26 02:28:55;;;;;;;0.10;0.10;;;;;;;19.26;100.00;98401.97;7393155;19;20018;-62
2022/09/26 02:31:24;;;;;;;0.10;0.10;;;;;;;19.37;100.00;98395.94;7390738;19;20014;-62
2022/09/26 02:33:52;;;;;;;0.43;0.40;;;;;;;19.39;100.00;98382.00;7390216;19;20010;-62
2022/09/26 02:36:19;;;;;;;1.85;0.40;;;;;;;19.62;100.00;98388.28;7393226;19;20011;-62
2022/09/26 02:38:46;;;;;;;0.10;0.10;;;;;;;18.98;100.00;98376.88;7393386;19;20028;-62
2022/09/26 02:41:49;;;;;;;0.10;0.10;;;;;;;19.06;100.00;98383.22;7393715;19;20007;-62
2022/09/26 02:44:24;;;;;;;0.20;0.20;;;;;;;19.00;100.00;98379.88;7387917;19;20648;-62
2022/09/26 02:47:28;;;;;;;0.10;0.10;;;;;;;18.73;100.00;98373.19;7388203;19;20038;-62
2022/09/26 02:49:54;;;;;;;0.10;0.10;;;;;;;18.68;100.00;98376.94;7388765;19;20010;-62
2022/09/26 02:52:44;;;;;;;0.85;0.20;;;;;;;18.78;100.00;98386.31;7389282;19;20011;-63
2022/09/26 02:55:25;;;;;;;0.10;0.10;;;;;;;18.61;100.00;98380.53;7389487;19;20058;-64
2022/09/26 02:58:00;;;;;;;0.10;0.10;;;;;;;18.51;100.00;98355.00;7389714;19;20018;-66
2022/09/26 03:00:39;;;;;;;0.10;0.10;;;;;;;18.40;100.00;98368.69;7389502;19;20011;-65
2022/09/26 03:03:14;;;;;;;0.40;0.10;;;;;;;18.55;100.00;98357.41;7390203;19;20017;-64
2022/09/26 03:05:43;;;;;;;0.15;0.10;;;;;;;18.62;100.00;98353.84;7391258;19;20026;-64
2022/09/26 03:08:18;;;;;;;0.10;0.10;;;;;;;18.98;100.00;98354.28;7388740;19;20017;-64
2022/09/26 03:10:46;;;;;;;0.10;0.10;;;;;;;19.24;100.00;98353.81;7388018;19;20348;-64
2022/09/26 03:13:15;;;;;;;2.53;0.17;;;;;;;19.16;100.00;98347.47;7388950;19;20024;-64
2022/09/26 03:15:47;;;;;;;0.10;0.10;;;;;;;19.04;100.00;98335.06;7392025;19;20741;-65
2022/09/26 03:18:18;;;;;;;0.20;0.20;;;;;;;19.07;100.00;98339.59;7389824;19;20017;-63
2022/09/26 03:20:45;;;;;;;;;;;;;;;18.87;100.00;98326.50;7390525;19;20018;-63
2022/09/26 03:23:12;;;;;;;0.10;0.10;;;;;;;18.88;100.00;98344.94;7387438;19;20324;-62
2022/09/26 03:25:39;;;;;;;0.10;0.10;;;;;;;18.87;100.00;98346.25;7391308;19;20010;-62
2022/09/26 03:28:11;;;;;;;0.68;0.30;;;;;;;18.66;100.00;98349.31;7390878;19;20014;-62
2022/09/26 03:30:38;;;;;;;0.20;0.20;;;;;;;18.51;100.00;98318.34;7388117;19;20024;-62
2022/09/26 03:33:26;;;;;;;1.35;0.28;;;;;;;18.38;100.00;98321.34;7389907;19;20010;-63
2022/09/26 03:35:54;;;;;;;0.20;0.10;;;;;;;18.35;100.00;98314.00;7394760;19;20011;-63
2022/09/26 03:38:21;;;;;;;0.10;0.10;;;;;;;18.02;100.00;98301.84;7388960;19;20029;-63
2022/09/26 03:40:57;;;;;;;0.25;0.20;;;;;;;18.17;100.00;98301.81;7390069;19;20109;-64
2022/09/26 03:43:43;;;;;;;0.10;0.10;;;;;;;17.71;100.00;98308.03;7390211;19;20048;-63
2022/09/26 03:46:11;;;;;;;0.20;0.20;;;;;;;17.55;100.00;98298.06;7391473;19;20415;-63
2022/09/26 03:48:38;;;;;;;4.95;0.50;;;;;;;17.44;100.00;98291.47;7387860;19;20014;-63
2022/09/26 03:51:11;;;;;;;0.28;0.28;;;;;;;17.67;100.00;98288.69;7388014;19;20028;-62
2022/09/26 03:53:41;;;;;;;0.80;0.32;;;;;;;17.72;100.00;98279.31;7390571;19;20512;-62
2022/09/26 03:56:14;;;;;;;0.10;0.10;;;;;;;17.63;100.00;98281.94;7392185;19;20011;-62
2022/09/26 03:58:41;;;;;;;0.38;0.10;;;;;;;17.77;100.00;98289.63;7388602;19;20368;-62
2022/09/26 04:01:13;;;;;;;0.30;0.20;;;;;;;17.68;100.00;98300.69;7390081;19;20007;-62
2022/09/26 04:03:42;;;;;;;0.30;0.30;;;;;;;17.62;100.00;98320.59;7389038;19;20018;-64
2022/09/26 04:06:09;;;;;;;2.42;0.50;;;;;;;15.69;100.00;98319.16;7390891;19;20015;-64
2022/09/26 04:08:36;;;;;;;4.03;0.32;;;;;;;17.52;100.00;98319.63;7388227;19;20087;-65
2022/09/26 04:11:06;;;;;;;1.85;0.73;;;;;;;17.21;100.00;98320.84;7388193;19;20018;-64
2022/09/26 04:13:33;;;;;;;0.43;0.43;;;;;;;17.31;100.00;98321.81;7387788;19;20010;-64
2022/09/26 04:16:00;;;;;;;0.25;0.10;;;;;;;16.94;100.00;98331.63;7391519;19;20014;-64
2022/09/26 04:18:28;;;;;;;0.93;0.75;;;;;;;17.08;100.00;98318.94;7387539;19;20021;-64
2022/09/26 04:20:59;;;;;;;1.73;0.98;;;;;;;17.07;100.00;98317.44;7388028;19;20019;-64
2022/09/26 04:23:27;;;;;;;4.40;0.63;;;;;;;17.00;100.00;98308.97;7387728;19;20486;-64
2022/09/26 04:25:54;;;;;;;3.35;0.90;;;;;;;17.02;100.00;98303.53;7389386;19;20656;-64
2022/09/26 04:28:20;;;;;;;5.22;0.30;;;;;;;16.83;100.00;98308.72;7390761;19;20031;-64
2022/09/26 04:30:48;;;;;;;0.70;0.57;;;;;;;16.82;100.00;98310.78;7386588;19;20694;-64
2022/09/26 04:33:15;;;;;;;0.40;0.40;;;;;;;17.12;100.00;98308.06;7386834;19;20035;-64
2022/09/26 04:35:46;;;;;;;1.45;0.90;;;;;;;17.25;100.00;98305.13;7389945;19;20558;-64
2022/09/26 04:38:12;;;;;;;7.68;0.65;;;;;;;15.66;100.00;98311.84;7389302;19;20018;-64
2022/09/26 04:40:39;;;;;;;2.45;0.82;;;;;;;16.88;100.00;98293.72;7390012;19;20030;-64
2022/09/26 04:43:07;;;;;;;1.35;0.52;;;;;;;16.96;100.00;98288.88;7385899;19;20030;-64
2022/09/26 04:45:33;;;;;;;0.32;0.32;;;;;;;17.05;100.00;98288.34;7389841;19;20620;-64
2022/09/26 04:48:01;;;;;;;0.28;0.28;;;;;;;17.00;100.00;98275.97;7387468;19;20014;-64
2022/09/26 04:50:42;;;;;;;2.90;1.23;;;;;;;16.89;100.00;98279.09;7387924;19;20026;-64
2022/09/26 04:53:10;;;;;;;0.57;0.57;;;;;;;16.80;100.00;98270.47;7387208;19;20018;-64
2022/09/26 04:55:45;;;;;;;3.90;0.90;;;;;;;16.42;100.00;98271.00;7395163;19;20070;-64
2022/09/26 04:58:13;;;;;;;;;;;;;;;16.41;100.00;98265.94;7395478;19;20038;-64
2022/09/26 05:00:46;;;;;;;3.22;0.32;;;;;;;16.25;100.00;98267.16;7393949;19;19911;-64
2022/09/26 05:03:16;;;;;;;0.40;0.35;;;;;;;16.22;100.00;98271.81;7394096;19;20018;-63
2022/09/26 05:05:46;;;;;;;1.90;0.57;;;;;;;16.33;100.00;98273.59;7395755;19;20386;-63
2022/09/26 05:08:16;;;;;;;0.20;0.20;;;;;;;16.46;100.00;98285.44;7395234;19;20011;-63
2022/09/26 05:10:42;;;;;;;6.55;0.32;;;;;;;16.50;100.00;98282.34;7395624;19;20010;-63
2022/09/26 05:13:09;;;;;;;0.20;0.20;;;;;;;16.45;100.00;98281.16;7395291;19;20018;-63
2022/09/26 05:15:38;;;;;;;7.55;0.98;;;;;;;16.56;100.00;98283.69;7395575;19;20025;-63
2022/09/26 05:18:06;;;;;;;3.63;0.82;;;;;;;16.53;100.00;98284.78;7392502;19;20082;-63
2022/09/26 05:20:37;;;;;;;1.27;0.30;;;;;;;16.62;100.00;98289.13;7392699;19;20014;-62
2022/09/26 05:23:09;;;;;;;3.05;0.73;;;;;;;16.70;100.00;98294.78;7393664;19;20041;-62
2022/09/26 05:28:25;;;;;;;0.15;0.13;;;;;;;16.48;100.00;98284.91;7398568;19;20010;-63
2022/09/26 05:30:53;;;;;;;0.45;0.45;;;;;;;16.40;100.00;98286.91;7393171;19;20014;-63
2022/09/26 05:33:21;;;;;;;0.47;0.47;;;;;;;16.42;100.00;98287.88;7393377;19;20471;-63
2022/09/26 05:35:53;;;;;;;0.90;0.57;;;;;;;16.34;100.00;98281.47;7393383;19;20018;-63
2022/09/26 05:38:20;;;;;;;8.98;1.48;;;;;;;16.40;100.00;98278.47;7392221;19;20090;-62
2022/09/26 05:40:55;;;;;;;0.32;0.32;;;;;;;16.42;100.00;98279.44;7392706;19;20018;-63
2022/09/26 05:43:23;;;;;;;0.93;0.73;;;;;;;16.38;100.00;98281.84;7392898;19;20042;-63
2022/09/26 05:45:54;;;;;;;0.47;0.47;;;;;;;16.37;100.00;98288.03;7396178;19;20014;-63
2022/09/26 05:48:28;;;;;;;2.55;1.38;;;;;;;16.53;100.00;98284.78;7392065;19;20010;-62
2022/09/26 05:50:55;;;;;;;2.03;1.30;;;;;;;16.48;100.00;98282.09;7392649;19;20007;-62
2022/09/26 05:53:22;;;;;;;2.47;0.85;;;;;;;16.28;100.00;98283.69;7392063;19;20025;-62
2022/09/26 05:55:50;;;;;;;0.85;0.77;;;;;;;16.40;100.00;98293.28;7395432;19;20010;-62
2022/09/26 05:58:33;;;;;;;1.10;0.25;;;;;;;16.34;100.00;98297.56;7390458;19;20446;-62
2022/09/26 06:01:32;;;;;;;6.53;1.13;;;;;;;16.46;100.00;98293.88;7391091;19;20007;-63
2022/09/26 06:04:06;;;;;;;3.50;1.13;;;;;;;16.39;100.00;98305.84;7391482;19;20022;-62
2022/09/26 06:06:43;;;;;;;3.75;0.63;;;;;;;16.24;100.00;98305.72;7390604;19;20015;-62
2022/09/26 06:09:11;;;;;;;1.02;0.98;;;;;;;16.22;100.00;98308.34;7391819;19;20013;-63
2022/09/26 06:11:56;;;;;;;1.48;1.38;;;;;;;16.14;100.00;98313.16;7392537;19;20010;-62
2022/09/26 06:14:25;;;;;;;1.45;0.95;;;;;;;16.20;100.00;98319.38;7392046;19;20033;-62
2022/09/26 06:16:51;;;;;;;3.75;0.98;;;;;;;16.19;100.00;98320.69;7391430;19;20014;-62
2022/09/26 06:19:17;;;;;;;0.57;0.57;;;;;;;16.19;100.00;98325.56;7391340;19;20443;-61
2022/09/26 06:21:43;;;;;;;0.38;0.32;;;;;;;16.20;100.00;98327.81;7391432;19;20014;-62
2022/09/26 06:24:13;;;;;;;1.95;1.20;;;;;;;16.12;100.00;98321.38;7390820;19;20022;-62
2022/09/26 06:26:40;;;;;;;2.33;0.75;;;;;;;16.20;100.00;98310.94;7389937;19;20007;-62
2022/09/26 06:29:09;;;;;;;4.10;1.05;;;;;;;16.01;100.00;98304.81;7391207;19;20351;-61
2022/09/26 06:31:37;;;;;;;12.10;0.87;;;;;;;16.16;100.00;98316.16;7391313;19;20015;-61
2022/09/26 06:34:11;;;;;;;8.82;1.13;;;;;;;16.18;100.00;98307.19;7391699;19;20474;-62
2022/09/26 06:36:57;;;;;;;6.07;1.65;;;;;;;16.21;100.00;98312.47;7391612;19;20006;-61
2022/09/26 06:39:34;;;;;;;7.45;1.38;;;;;;;16.12;100.00;98303.78;7391520;19;20491;-61
2022/09/26 06:42:02;;;;;;;4.30;1.02;;;;;;;16.22;100.00;98308.34;7391300;19;20480;-61
2022/09/26 06:44:35;;;;;;;13.45;1.55;;;;;;;16.41;100.00;98302.47;7391548;19;20011;-61
2022/09/26 06:47:12;;;;;;;2.63;1.13;;;;;;;16.24;100.00;98288.13;7389334;19;20078;-61
2022/09/26 06:49:39;;;;;;;7.75;1.73;;;;;;;16.53;100.00;98295.25;7391167;19;20006;-62
2022/09/26 06:52:22;;;;;;;5.03;1.02;;;;;;;16.47;100.00;98303.81;7390229;19;20018;-62
2022/09/26 06:54:48;;;;;;;3.63;0.65;;;;;;;16.53;100.00;98312.88;7390877;19;20003;-61
2022/09/26 06:57:15;;;;;;;6.25;1.38;;;;;;;16.78;100.00;98309.63;7390714;19;20524;-61
2022/09/26 06:59:41;;;;;;;6.22;1.75;;;;;;;16.70;100.00;98306.78;7390314;19;20036;-62
2022/09/26 07:02:18;;;;;;;2.70;0.95;;;;;;;16.53;100.00;98310.06;7388832;19;21050;-62
2022/09/26 07:04:58;;;;;;;0.77;0.77;;;;;;;16.67;100.00;98308.63;7393037;19;20017;-61
2022/09/26 07:07:47;;;;;;;5.10;1.15;;;;;;;16.72;100.00;98309.03;7388069;19;20380;-62
2022/09/26 07:10:26;;;;;;;2.88;0.90;;;;;;;16.71;100.00;98307.53;7390773;19;20085;-62
2022/09/26 07:13:08;;;;;;;0.52;0.52;;;;;;;16.78;100.00;98312.44;7389761;19;20010;-61
2022/09/26 07:15:35;;;;;;;1.88;0.20;;;;;;;16.74;100.00;98307.16;7393489;19;20015;-62
2022/09/26 07:18:11;;;;;;;3.60;1.23;;;;;;;16.66;100.00;98318.38;7387416;19;20700;-62
2022/09/26 07:20:56;;;;;;;4.68;0.60;;;;;;;16.59;100.00;98324.72;7390604;19;20011;-61
2022/09/26 07:23:46;;;;;;;0.20;0.20;;;;;;;16.62;100.00;98332.03;7390022;19;20035;-61
2022/09/26 07:26:12;;;;;;;5.18;0.73;;;;;;;16.64;100.00;98337.88;7392813;19;20014;-61
2022/09/26 07:28:38;;;;;;;1.05;0.50;;;;;;;16.59;100.00;98335.94;7394485;19;20014;-61
2022/09/26 07:31:05;;;;;;;3.50;0.85;;;;;;;16.82;100.00;98335.31;7388926;19;20022;-61
2022/09/26 07:33:53;;;;;;;1.65;0.52;;;;;;;16.80;100.00;98344.31;7389505;19;20475;-64
2022/09/26 07:36:21;;;;;;;3.65;1.13;;;;;;;16.80;100.00;98344.31;7393160;19;20014;-62
2022/09/26 07:38:48;;;;;;;0.30;0.30;;;;;;;16.86;100.00;98330.84;7388764;19;20018;-61
2022/09/26 07:41:16;;;;;;;0.80;0.75;;;;;;;16.96;100.00;98317.00;7389174;19;20025;-62
2022/09/26 07:43:43;;;;;;;0.65;0.43;;;;;;;17.11;100.00;98322.69;7389084;19;20014;-61
2022/09/26 07:51:59;;;;;;;1.98;0.85;;;;;;;17.02;100.00;98335.22;7392529;19;20018;-61
2022/09/26 07:54:35;;;;;;;3.25;0.45;;;;;;;17.02;100.00;98346.47;7388144;19;20006;-61
2022/09/26 07:57:33;;;;;;;0.25;0.25;;;;;;;17.13;100.00;98348.22;7388424;19;20021;-61
2022/09/26 08:00:23;;;;;;;3.58;0.45;;;;;;;17.12;100.00;98332.63;7389443;19;20039;-61
2022/09/26 08:03:12;;;;;;;6.75;0.30;;;;;;;17.23;100.00;98343.56;7390684;19;20007;-61
2022/09/26 08:05:41;;;;;;;1.10;0.60;;;;;;;17.19;100.00;98357.25;7392453;19;20085;-62
2022/09/26 08:08:08;;;;;;;3.33;0.47;;;;;;;16.61;100.00;98355.81;7387250;19;20043;-62
2022/09/26 08:10:57;;;;;;;6.20;0.38;;;;;;;17.00;100.00;98349.09;7389182;19;20010;-61
2022/09/26 08:13:47;;;;;;;0.43;0.43;;;;;;;17.20;100.00;98342.59;7388853;19;20018;-61
2022/09/26 08:16:22;;;;;;;1.17;0.52;;;;;;;17.58;100.00;98351.19;7394299;19;20019;-61
2022/09/26 08:18:52;;;;;;;6.05;1.45;;;;;;;17.65;100.00;98346.88;7387851;19;20032;-61
2022/09/26 08:21:19;;;;;;;0.75;0.47;;;;;;;17.75;100.00;98348.59;7387212;19;20118;-61
2022/09/26 08:23:46;;;;;;;9.18;0.65;;;;;;;17.79;100.00;98351.03;7387590;19;20007;-61
2022/09/26 08:26:37;;;;;;;10.93;1.63;;;;;;;17.77;100.00;98354.41;7387318;19;20010;-61
2022/09/26 08:29:12;;;;;;;1.33;0.20;;;;;;;17.66;100.00;98363.22;7391107;19;20027;-61
2022/09/26 08:31:40;;;;;;;0.20;0.20;;;;;;;17.71;100.00;98356.66;7395104;19;20084;-61
2022/09/26 08:34:06;;;;;;;0.55;0.40;;;;;;;17.70;100.00;98368.47;7394547;19;20018;-61
2022/09/26 08:36:35;;;;;;;3.53;0.52;;;;;;;17.54;100.00;98367.69;7395220;19;20108;-61
2022/09/26 08:39:21;;;;;;;2.05;0.73;;;;;;;17.57;100.00;98377.81;7396120;19;20030;-61
2022/09/26 08:42:08;;;;;;;1.20;0.63;;;;;;;17.37;100.00;98379.44;7395532;19;20014;-60
2022/09/26 08:48:50;;;;;;;0.22;0.22;;;;;;;17.71;100.00;98384.81;7397036;19;20010;-61
2022/09/26 08:51:36;;;;;;;5.10;1.33;;;;;;;18.26;100.00;98381.50;7393755;19;20420;-61
2022/09/26 08:54:12;;;;;;;0.20;0.10;;;;;;;18.56;100.00;98376.56;7393590;19;20079;-61
2022/09/26 08:56:43;;;;;;;4.43;0.47;;;;;;;18.16;100.00;98384.09;7396074;19;20371;-61
2022/09/26 08:59:28;;;;;;;0.32;0.32;;;;;;;17.99;100.00;98381.84;7394294;19;20018;-61
2022/09/26 09:01:59;;;;;;;4.30;0.82;;;;;;;17.85;100.00;98397.41;7393171;19;20021;-61
2022/09/26 09:04:37;;;;;;;3.13;0.60;;;;;;;17.85;100.00;98397.41;7394189;19;20027;-61
2022/09/26 09:07:11;;;;;;;6.40;1.05;;;;;;;18.19;100.00;98406.25;7391849;19;20350;-60
2022/09/26 09:09:38;;;;;;;3.03;0.70;;;;;;;18.53;100.00;98414.38;7394736;19;20011;-61
2022/09/26 09:12:38;;;;;;;3.00;0.32;;;;;;;18.47;100.00;98418.72;7393899;19;20026;-60
2022/09/26 09:16:00;;;;;;;1.67;0.73;;;;;;;18.67;100.00;98412.09;7395981;19;20038;-61
2022/09/26 09:18:57;;;;;;;0.10;0.10;;;;;;;18.97;100.00;98409.25;7394621;19;20011;-60
2022/09/26 09:22:02;;;;;;;2.47;0.80;;;;;;;19.20;100.00;98421.19;7392454;19;20082;-60
2022/09/26 09:25:10;;;;;;;2.22;0.38;;;;;;;18.97;100.00;98414.13;7394331;19;20038;-61
2022/09/26 09:27:43;;;;;;;3.92;0.63;;;;;;;18.96;100.00;98416.19;7392467;19;20654;-60
2022/09/26 09:30:19;;;;;;;1.02;0.85;;;;;;;19.01;100.00;98426.53;7393436;19;20014;-60
2022/09/26 09:33:02;;;;;;;0.35;0.35;;;;;;;19.08;100.00;98420.09;7394134;19;20018;-60
2022/09/26 09:36:13;;;;;;;0.35;0.35;;;;;;;19.09;100.00;98424.44;7396063;19;20010;-61
2022/09/26 09:39:06;;;;;;;3.38;0.95;;;;;;;19.04;100.00;98436.66;7390985;19;20074;-60
2022/09/26 09:41:49;;;;;;;0.10;0.10;;;;;;;18.85;100.00;98437.09;7391813;19;20081;-61
2022/09/26 09:44:22;;;;;;;0.15;0.15;;;;;;;18.78;100.00;98442.72;7394634;19;20011;-61
2022/09/26 09:46:49;;;;;;;1.23;0.77;;;;;;;18.92;100.00;98435.56;7391192;19;20041;-60
2022/09/26 09:49:20;;;;;;;0.10;0.10;;;;;;;18.90;100.00;98427.69;7392256;19;20025;-60
2022/09/26 09:52:04;;;;;;;0.38;0.28;;;;;;;18.61;100.00;98434.09;7394130;19;20010;-60
2022/09/26 09:54:56;;;;;;;0.35;0.28;;;;;;;18.02;100.00;98439.88;7392763;19;20031;-60
2022/09/26 09:57:25;;;;;;;1.75;0.32;;;;;;;17.74;100.00;98445.63;7393640;19;20007;-61
2022/09/26 10:00:10;;;;;;;10.75;1.00;;;;;;;18.24;100.00;98440.47;7391741;19;20600;-60
2022/09/26 10:03:22;;;;;;;0.30;0.30;;;;;;;18.57;100.00;98437.31;7393989;19;20010;-60
2022/09/26 10:05:56;;;;;;;3.83;0.45;;;;;;;19.20;100.00;98449.44;7394669;19;20018;-60
2022/09/26 10:08:36;;;;;;;2.00;0.38;;;;;;;19.05;100.00;98449.47;7392632;19;20010;-61
2022/09/26 10:11:40;;;;;;;;;;;;;;;18.82;100.00;98443.09;7392552;19;20102;-61
2022/09/26 10:14:33;;;;;;;2.17;0.30;;;;;;;18.91;100.00;98445.34;7391246;19;19929;-61
2022/09/26 10:17:08;;;;;;;0.38;0.32;;;;;;;18.87;100.00;98450.63;7393412;19;20038;-61
2022/09/26 10:19:41;;;;;;;4.93;0.30;;;;;;;18.75;100.00;98455.88;7395072;19;20007;-61
2022/09/26 10:22:14;;;;;;;3.80;1.00;;;;;;;18.68;100.00;98451.03;7394189;19;20395;-61
2022/09/26 10:24:45;;;;;;;0.10;0.10;;;;;;;18.72;100.00;98459.09;7393748;19;20562;-61
2022/09/26 10:27:33;;;;;;;0.38;0.28;;;;;;;18.46;100.00;98456.66;7394007;19;20011;-61
2022/09/26 10:30:20;;;;;;;4.78;0.55;;;;;;;18.34;100.00;98467.53;7393714;19;20015;-61
2022/09/26 10:32:57;;;;;;;0.10;0.10;;;;;;;18.60;100.00;98469.28;7390933;19;20019;-61
2022/09/26 10:35:50;;;;;;;1.42;0.40;;;;;;;19.20;100.00;98457.91;7393864;19;20448;-62
2022/09/26 10:38:27;;;;;;;3.13;0.45;;;;;;;18.93;100.00;98471.66;7390577;19;20014;-62
2022/09/26 10:41:04;;;;;;;7.10;1.95;;;;;;;19.23;100.00;98465.22;7390811;19;20373;-62
2022/09/26 10:43:36;;;;;;;4.85;0.65;;;;;;;19.32;100.00;98475.91;7391165;19;20006;-62
2022/09/26 10:46:26;;;;;;;0.38;0.17;;;;;;;19.12;100.00;98474.09;7394887;19;20014;-62
2022/09/26 10:49:35;;;;;;;1.05;0.40;;;;;;;19.30;100.00;98487.03;7391692;19;20018;-61
2022/09/26 10:52:35;;;;;;;1.85;0.60;;;;;;;19.25;100.00;98476.69;7390813;19;20007;-61
2022/09/26 10:55:05;;;;;;;0.20;0.20;;;;;;;19.43;100.00;98483.25;7393658;19;20585;-61
2022/09/26 10:57:44;;;;;;;0.10;0.10;;;;;;;19.37;100.00;98479.88;7393113;19;20359;-61
2022/09/26 11:00:39;;;;;;;1.77;0.35;;;;;;;19.32;100.00;98484.38;7391570;19;20102;-61
2022/09/26 11:03:40;;;;;;;0.98;0.35;;;;;;;19.48;100.00;98502.81;7395679;19;20078;-62
2022/09/26 11:06:43;;;;;;;0.10;0.10;;;;;;;19.56;100.00;98506.38;7392990;19;20003;-61
2022/09/26 11:09:44;;;;;;;0.20;0.10;;;;;;;19.24;100.00;98511.88;7389391;19;20017;-61
2022/09/26 11:12:40;;;;;;;0.95;0.10;;;;;;;19.01;100.00;98499.91;7388908;19;20014;-61
2022/09/26 11:15:13;;;;;;;0.10;0.10;;;;;;;18.75;100.00;98506.66;7391441;19;20018;-61
2022/09/26 11:17:48;;;;;;;0.10;0.10;;;;;;;18.55;100.00;98504.03;7390224;19;20019;-61
2022/09/26 11:20:16;;;;;;;5.10;0.73;;;;;;;18.33;100.00;98504.72;7390559;19;20014;-61
2022/09/26 11:22:50;;;;;;;0.17;0.17;;;;;;;18.59;100.00;98501.59;7390645;19;20010;-61
2022/09/26 11:25:27;;;;;;;0.10;0.10;;;;;;;18.74;100.00;98498.78;7389865;19;20029;-61
2022/09/26 11:28:16;;;;;;;0.30;0.30;;;;;;;19.03;100.00;98502.91;7389528;19;20014;-61
2022/09/26 11:31:14;;;;;;;2.72;0.52;;;;;;;19.36;100.00;98507.34;7389644;19;20024;-61
2022/09/26 11:33:45;;;;;;;0.32;0.30;;;;;;;19.52;100.00;98511.66;7389209;19;20015;-61
2022/09/26 11:37:02;;;;;;;0.10;0.00;;;;;;;19.75;100.00;98505.19;7388364;19;20033;-61
2022/09/26 11:39:44;;;;;;;0.95;0.47;;;;;;;19.34;100.00;98526.94;7388677;19;20018;-61
2022/09/26 11:42:27;;;;;;;1.27;0.43;;;;;;;19.02;100.00;98512.66;7389705;19;20015;-60
2022/09/26 11:45:00;;;;;;;0.32;0.10;;;;;;;18.99;100.00;98519.47;7388879;19;20010;-61
2022/09/26 11:47:38;;;;;;;0.25;0.10;;;;;;;19.09;100.00;98517.56;7388736;19;20014;-61
2022/09/26 11:50:22;;;;;;;0.65;0.17;;;;;;;18.79;100.00;98518.34;7390208;19;20011;-60
2022/09/26 11:53:38;;;;;;;0.95;0.28;;;;;;;19.68;100.00;98515.91;7388107;19;20031;-61
2022/09/26 11:56:23;;;;;;;0.30;0.10;;;;;;;20.19;100.00;98517.56;7393874;19;20017;-61
2022/09/26 11:59:18;;;;;;;0.50;0.10;;;;;;;20.13;100.00;98511.38;7390003;19;20015;-61
2022/09/26 12:01:54;;;;;;;0.10;0.10;;;;;;;20.14;100.00;98518.53;7389126;19;20011;-61
2022/09/26 12:04:48;;;;;;;0.25;0.25;;;;;;;20.00;100.00;98525.78;7391311;19;20015;-61
2022/09/26 12:07:51;;;;;;;1.30;0.43;;;;;;;19.53;100.00;98526.53;7395535;19;20015;-61
2022/09/26 12:10:46;;;;;;;0.10;0.03;;;;;;;19.49;100.00;98526.91;7399394;19;20440;-61
2022/09/26 12:13:33;;;;;;;0.40;0.40;;;;;;;19.43;100.00;98517.88;7397987;19;20018;-62
2022/09/26 12:16:08;;;;;;;2.08;0.20;;;;;;;19.38;100.00;98527.31;7400847;19;20612;-63
2022/09/26 12:19:02;;;;;;;0.10;0.00;;;;;;;19.52;100.00;98536.31;7396671;19;20011;-63
2022/09/26 12:21:34;;;;;;;0.10;0.10;;;;;;;19.47;100.00;98535.19;7397534;19;20015;-63